createdAt,value
2019-06-26T00:01:06.627Z,4.30
2019-06-26T00:03:36.545Z,3.90
2019-06-26T00:06:06.912Z,5.13
2019-06-26T00:08:37.064Z,5.27
2019-06-26T00:11:06.975Z,5.60
2019-06-26T00:13:36.887Z,5.67
2019-06-26T00:16:06.824Z,5.10
2019-06-26T00:18:36.713Z,4.90
2019-06-26T00:21:06.624Z,4.60
2019-06-26T00:23:36.537Z,4.80
2019-06-26T00:26:06.552Z,4.10
2019-06-26T00:28:36.344Z,4.80
2019-06-26T00:31:06.380Z,3.93
2019-06-26T00:33:36.289Z,4.20
2019-06-26T00:36:06.200Z,4.00
2019-06-26T00:38:39.945Z,4.17
2019-06-26T00:41:08.182Z,4.10
2019-06-26T00:43:42.191Z,4.37
2019-06-26T00:46:09.724Z,4.57
2019-06-26T00:48:39.703Z,4.10
2019-06-26T00:51:09.611Z,4.20
2019-06-26T00:53:39.828Z,4.27
2019-06-26T00:56:11.522Z,4.53
2019-06-26T00:58:41.611Z,4.30
2019-06-26T01:01:11.527Z,4.10
2019-06-26T01:03:41.436Z,3.90
2019-06-26T01:06:13.217Z,3.87
2019-06-26T01:08:43.131Z,4.03
2019-06-26T01:11:13.044Z,4.17
2019-06-26T01:13:57.317Z,4.00
2019-06-26T01:16:14.644Z,3.77
2019-06-26T01:18:44.468Z,3.53
2019-06-26T01:21:14.465Z,3.30
2019-06-26T01:23:44.381Z,3.90
2019-06-26T01:26:14.493Z,3.80
2019-06-26T01:28:44.504Z,3.30
2019-06-26T01:31:14.707Z,3.50
2019-06-26T01:33:44.914Z,3.20
2019-06-26T01:36:14.827Z,3.30
2019-06-26T01:38:44.742Z,3.20
2019-06-26T01:41:14.784Z,3.20
2019-06-26T01:43:44.764Z,2.83
2019-06-26T01:46:14.675Z,3.10
2019-06-26T01:48:44.592Z,2.90
2019-06-26T01:51:14.602Z,2.87
2019-06-26T01:53:44.516Z,2.60
2019-06-26T01:56:14.525Z,2.80
2019-06-26T01:58:44.444Z,2.93
2019-06-26T02:01:14.451Z,2.73
2019-06-26T02:03:44.663Z,2.73
2019-06-26T02:06:14.668Z,3.40
2019-06-26T02:08:44.460Z,3.00
2019-06-26T02:11:14.397Z,3.07
2019-06-26T02:13:44.507Z,3.00
2019-06-26T02:16:14.419Z,3.10
2019-06-26T02:18:51.412Z,3.50
2019-06-26T02:21:21.323Z,3.37
2019-06-26T02:23:51.334Z,3.10
2019-06-26T02:26:21.346Z,3.10
2019-06-26T02:28:51.261Z,3.73
2019-06-26T02:31:21.370Z,3.00
2019-06-26T02:33:51.288Z,3.43
2019-06-26T02:36:21.495Z,3.47
2019-06-26T02:38:52.291Z,3.57
2019-06-26T02:41:23.479Z,3.30
2019-06-26T02:43:53.786Z,3.30
2019-06-26T02:46:23.699Z,3.50
2019-06-26T02:48:53.494Z,3.33
2019-06-26T02:51:23.629Z,3.43
2019-06-26T02:53:53.732Z,3.30
2019-06-26T02:56:23.839Z,3.27
2019-06-26T02:58:53.753Z,3.33
2019-06-26T03:01:23.673Z,3.20
2019-06-26T03:03:53.601Z,3.33
2019-06-26T03:06:23.592Z,3.30
2019-06-26T03:08:53.602Z,3.00
2019-06-26T03:11:23.711Z,3.20
2019-06-26T03:13:53.626Z,3.27
2019-06-26T03:16:23.537Z,3.20
2019-06-26T03:18:53.746Z,3.40
2019-06-26T03:21:23.855Z,3.10
2019-06-26T03:23:53.768Z,3.50
2019-06-26T03:26:23.779Z,3.40
2019-06-26T03:28:53.693Z,3.27
2019-06-26T03:31:23.618Z,3.37
2019-06-26T03:33:53.522Z,3.40
2019-06-26T03:36:23.431Z,3.40
2019-06-26T03:38:53.443Z,3.30
2019-06-26T03:41:23.585Z,3.20
2019-06-26T03:43:53.565Z,3.17
2019-06-26T03:46:23.481Z,3.30
2019-06-26T03:48:53.391Z,3.37
2019-06-26T03:51:23.598Z,3.07
2019-06-26T03:53:53.817Z,3.30
2019-06-26T03:56:23.721Z,3.47
2019-06-26T03:58:53.634Z,3.23
2019-06-26T04:01:23.645Z,3.23
2019-06-26T04:03:57.296Z,3.47
2019-06-26T04:06:25.436Z,3.20
2019-06-26T04:08:55.465Z,3.00
2019-06-26T04:11:25.462Z,2.93
2019-06-26T04:13:55.378Z,3.20
2019-06-26T04:16:25.285Z,2.90
2019-06-26T04:18:55.264Z,3.30
2019-06-26T04:21:25.211Z,3.00
2019-06-26T04:23:55.121Z,2.60
2019-06-26T04:26:25.037Z,3.40
2019-06-26T04:28:54.947Z,2.80
2019-06-26T04:31:24.863Z,2.90
2019-06-26T04:33:54.774Z,2.73
2019-06-26T04:36:24.687Z,2.93
2019-06-26T04:38:54.601Z,2.93
2019-06-26T04:41:25.397Z,2.80
2019-06-26T04:43:55.318Z,3.23
2019-06-26T04:46:25.715Z,3.10
2019-06-26T04:48:55.628Z,3.03
2019-06-26T04:51:25.546Z,3.20
2019-06-26T04:53:55.816Z,3.13
2019-06-26T04:56:26.054Z,2.80
2019-06-26T04:58:55.977Z,2.83
2019-06-26T05:01:25.886Z,2.83
2019-06-26T05:03:55.905Z,2.80
2019-06-26T05:06:25.819Z,2.70
2019-06-26T05:08:55.718Z,3.00
2019-06-26T05:11:25.633Z,3.10
2019-06-26T05:13:55.692Z,2.80
2019-06-26T05:16:25.656Z,2.80
2019-06-26T05:18:55.668Z,2.80
2019-06-26T05:21:25.580Z,2.87
2019-06-26T05:23:55.787Z,2.70
2019-06-26T05:26:25.702Z,2.60
2019-06-26T05:28:55.614Z,2.70
2019-06-26T05:31:25.762Z,2.73
2019-06-26T05:33:55.736Z,2.80
2019-06-26T05:36:25.648Z,2.63
2019-06-26T05:38:55.637Z,2.80
2019-06-26T05:41:25.673Z,2.50
2019-06-26T05:43:55.606Z,2.60
2019-06-26T05:46:31.146Z,2.60
2019-06-26T05:48:57.488Z,2.67
2019-06-26T05:51:27.391Z,2.60
2019-06-26T05:53:57.302Z,2.87
2019-06-26T05:56:27.219Z,2.50
2019-06-26T05:58:57.225Z,2.80
2019-06-26T06:01:27.147Z,2.70
2019-06-26T06:03:57.054Z,2.90
2019-06-26T06:06:40.636Z,2.60
2019-06-26T06:08:59.104Z,2.50
2019-06-26T06:11:29.149Z,2.70
2019-06-26T06:13:59.063Z,2.60
2019-06-26T06:16:29.185Z,2.70
2019-06-26T06:18:59.183Z,2.57
2019-06-26T06:21:29.097Z,2.30
2019-06-26T06:23:59.401Z,2.67
2019-06-26T06:26:29.316Z,2.57
2019-06-26T06:28:59.293Z,2.60
2019-06-26T06:31:29.240Z,2.30
2019-06-26T06:33:59.153Z,2.50
2019-06-26T06:36:29.046Z,2.50
2019-06-26T06:38:59.182Z,2.50
2019-06-26T06:41:29.088Z,2.30
2019-06-26T06:43:59.297Z,2.60
2019-06-26T06:46:29.210Z,2.50
2019-06-26T06:48:59.222Z,2.77
2019-06-26T06:51:29.135Z,2.63
2019-06-26T06:53:59.341Z,2.73
2019-06-26T06:56:29.373Z,2.60
2019-06-26T06:58:59.364Z,2.50
2019-06-26T07:01:29.278Z,2.37
2019-06-26T07:03:59.196Z,2.70
2019-06-26T07:06:29.103Z,2.60
2019-06-26T07:08:59.017Z,2.70
2019-06-26T07:11:29.127Z,2.50
2019-06-26T07:13:59.040Z,2.50
2019-06-26T07:16:28.951Z,2.50
2019-06-26T07:18:59.063Z,2.43
2019-06-26T07:21:29.075Z,2.50
2019-06-26T07:23:59.188Z,2.33
2019-06-26T07:26:29.096Z,2.60
2019-06-26T07:28:59.016Z,2.40
2019-06-26T07:31:29.413Z,2.60
2019-06-26T07:33:59.326Z,2.58
2019-06-26T07:36:29.455Z,2.42
2019-06-26T07:38:59.350Z,2.65
2019-06-26T07:41:29.262Z,2.67
2019-06-26T07:43:59.178Z,2.60
2019-06-26T07:46:29.287Z,2.55
2019-06-26T07:48:59.199Z,2.33
2019-06-26T07:51:29.309Z,2.40
2019-06-26T07:53:59.173Z,2.47
2019-06-26T07:56:29.335Z,2.50
2019-06-26T07:58:59.253Z,2.02
2019-06-26T08:01:29.176Z,2.30
2019-06-26T08:03:59.180Z,2.33
2019-06-26T08:06:29.378Z,2.52
2019-06-26T08:08:59.330Z,2.60
2019-06-26T08:11:29.209Z,2.40
2019-06-26T08:13:59.117Z,2.35
2019-06-26T08:16:29.042Z,2.20
2019-06-26T08:18:58.947Z,2.30
2019-06-26T08:21:29.052Z,2.65
2019-06-26T08:23:58.966Z,2.05
2019-06-26T08:26:29.077Z,2.10
2019-06-26T08:28:59.285Z,2.50
2019-06-26T08:31:29.241Z,2.30
2019-06-26T08:33:59.404Z,2.55
2019-06-26T08:36:29.434Z,2.60
2019-06-26T08:38:59.627Z,2.58
2019-06-26T08:41:29.834Z,2.20
2019-06-26T08:43:59.767Z,2.10
2019-06-26T08:46:29.616Z,2.10
2019-06-26T08:48:59.626Z,2.35
2019-06-26T08:51:29.582Z,2.40
2019-06-26T08:53:59.495Z,2.20
2019-06-26T08:56:29.410Z,2.30
2019-06-26T08:58:59.438Z,2.55
2019-06-26T09:01:29.532Z,2.50
2019-06-26T09:03:59.450Z,2.00
2019-06-26T09:06:29.355Z,2.40
2019-06-26T09:08:59.268Z,2.20
2019-06-26T09:11:29.372Z,2.25
2019-06-26T09:13:59.592Z,2.30
2019-06-26T09:16:29.525Z,2.45
2019-06-26T09:19:01.283Z,2.10
2019-06-26T09:21:31.496Z,2.37
2019-06-26T09:24:01.830Z,2.50
2019-06-26T09:26:31.806Z,2.30
2019-06-26T09:29:01.719Z,2.20
2019-06-26T09:31:31.633Z,2.40
2019-06-26T09:34:01.546Z,2.60
2019-06-26T09:36:31.458Z,2.35
2019-06-26T09:39:01.379Z,2.10
2019-06-26T09:41:31.481Z,2.50
2019-06-26T09:44:01.394Z,2.52
2019-06-26T09:46:31.407Z,2.50
2019-06-26T09:49:01.620Z,2.47
2019-06-26T09:51:31.527Z,2.15
2019-06-26T09:54:01.442Z,2.35
2019-06-26T09:56:31.353Z,2.55
2019-06-26T09:59:01.361Z,2.37
2019-06-26T10:01:31.378Z,2.50
2019-06-26T10:04:01.290Z,2.30
2019-06-26T10:06:31.272Z,2.27
2019-06-26T10:09:01.708Z,2.55
2019-06-26T10:11:31.911Z,2.20
2019-06-26T10:14:01.827Z,2.67
2019-06-26T10:16:31.740Z,2.58
2019-06-26T10:19:10.213Z,2.80
2019-06-26T10:21:33.452Z,2.50
2019-06-26T10:24:03.492Z,2.42
2019-06-26T10:26:33.454Z,2.37
2019-06-26T10:29:03.667Z,2.42
2019-06-26T10:31:33.582Z,2.40
2019-06-26T10:34:03.488Z,2.45
2019-06-26T10:36:33.502Z,2.67
2019-06-26T10:39:04.920Z,2.52
2019-06-26T10:41:34.908Z,2.47
2019-06-26T10:44:05.236Z,2.35
2019-06-26T10:46:35.514Z,2.40
2019-06-26T10:49:05.546Z,2.50
2019-06-26T10:51:35.443Z,2.40
2019-06-26T10:54:05.665Z,2.40
2019-06-26T10:56:35.919Z,2.20
2019-06-26T10:59:06.453Z,2.70
2019-06-26T11:01:36.957Z,2.55
2019-06-26T11:04:06.871Z,2.90
2019-06-26T11:06:37.417Z,2.90
2019-06-26T11:09:09.479Z,2.67
2019-06-26T11:11:39.461Z,2.47
2019-06-26T11:14:09.574Z,2.27
2019-06-26T11:16:39.491Z,2.40
2019-06-26T11:19:09.492Z,2.33
2019-06-26T11:21:39.412Z,2.47
2019-06-26T11:24:09.418Z,2.47
2019-06-26T11:26:39.331Z,2.20
2019-06-26T11:29:09.244Z,2.30
2019-06-26T11:31:39.463Z,2.40
2019-06-26T11:34:09.660Z,2.75
2019-06-26T11:36:39.603Z,2.50
2019-06-26T11:39:10.294Z,2.27
2019-06-26T11:41:40.283Z,2.42
2019-06-26T11:44:10.196Z,2.25
2019-06-26T11:46:40.109Z,2.00
2019-06-26T11:49:10.022Z,2.55
2019-06-26T11:51:40.134Z,2.42
2019-06-26T11:54:10.146Z,2.50
2019-06-26T11:56:40.065Z,2.58
2019-06-26T11:59:10.173Z,2.75
2019-06-26T12:01:40.179Z,2.33
2019-06-26T12:04:10.188Z,2.50
2019-06-26T12:06:40.118Z,2.90
2019-06-26T12:09:11.064Z,2.70
2019-06-26T12:11:41.011Z,2.55
2019-06-26T12:14:12.523Z,2.52
2019-06-26T12:16:42.531Z,2.25
2019-06-26T12:19:12.714Z,2.35
2019-06-26T12:21:43.021Z,2.40
2019-06-26T12:24:13.482Z,2.35
2019-06-26T12:26:43.436Z,2.65
2019-06-26T12:29:13.644Z,2.50
2019-06-26T12:31:43.578Z,2.35
2019-06-26T12:34:17.748Z,2.20
2019-06-26T12:36:47.710Z,2.20
2019-06-26T12:39:17.635Z,2.50
2019-06-26T12:41:48.148Z,2.20
2019-06-26T12:44:18.431Z,2.30
2019-06-26T12:46:48.348Z,2.50
2019-06-26T12:49:18.259Z,2.52
2019-06-26T12:51:48.173Z,2.30
2019-06-26T12:54:18.122Z,2.20
2019-06-26T12:56:48.490Z,2.50
2019-06-26T12:59:18.402Z,2.47
2019-06-26T13:01:48.433Z,2.37
2019-06-26T13:04:18.331Z,2.30
2019-06-26T13:06:48.248Z,2.50
2019-06-26T13:09:18.152Z,2.55
2019-06-26T13:11:48.262Z,2.42
2019-06-26T13:14:18.175Z,2.35
2019-06-26T13:16:48.107Z,2.50
2019-06-26T13:19:18.228Z,2.25
2019-06-26T13:21:49.911Z,2.40
2019-06-26T13:24:19.831Z,2.62
2019-06-26T13:26:49.812Z,2.10
2019-06-26T13:29:19.813Z,2.27
2019-06-26T13:31:52.185Z,2.75
2019-06-26T13:34:22.098Z,2.40
2019-06-26T13:36:52.014Z,2.50
2019-06-26T13:39:23.061Z,2.40
2019-06-26T13:41:56.262Z,2.42
2019-06-26T13:44:26.272Z,2.50
2019-06-26T13:46:56.381Z,2.83
2019-06-26T13:49:27.381Z,2.60
2019-06-26T13:51:57.292Z,2.35
2019-06-26T13:54:30.348Z,2.50
2019-06-26T13:57:00.262Z,2.37
2019-06-26T13:59:33.810Z,2.72
2019-06-26T14:02:03.723Z,2.70
2019-06-26T14:04:35.163Z,2.60
2019-06-26T14:07:08.506Z,2.62
2019-06-26T14:09:36.905Z,2.62
2019-06-26T14:12:06.817Z,2.67
2019-06-26T14:14:52.750Z,2.85
2019-06-26T14:17:08.811Z,2.95
2019-06-26T14:19:40.192Z,2.90
2019-06-26T14:22:13.010Z,3.00
2019-06-26T14:24:41.792Z,3.20
2019-06-26T14:27:11.700Z,2.75
2019-06-26T14:29:41.614Z,2.95
2019-06-26T14:32:11.820Z,2.87
2019-06-26T14:34:44.884Z,2.80
2019-06-26T14:37:14.791Z,2.80
2019-06-26T14:39:48.537Z,2.98
2019-06-26T14:42:21.213Z,3.02
2019-06-26T14:44:52.783Z,3.05
2019-06-26T14:47:24.374Z,3.12
2019-06-26T14:49:55.273Z,3.08
2019-06-26T14:52:25.182Z,2.75
2019-06-26T14:54:55.095Z,3.17
2019-06-26T14:57:26.080Z,2.90
2019-06-26T14:59:56.103Z,2.70
2019-06-26T15:02:26.036Z,2.95
2019-06-26T15:04:56.275Z,3.05
2019-06-26T15:07:26.430Z,3.27
2019-06-26T15:09:56.342Z,2.98
2019-06-26T15:12:26.256Z,2.87
2019-06-26T15:14:56.465Z,3.10
2019-06-26T15:17:26.474Z,2.98
2019-06-26T15:19:56.487Z,3.05
2019-06-26T15:22:26.499Z,2.80
2019-06-26T15:24:56.709Z,3.17
2019-06-26T15:27:26.716Z,2.90
2019-06-26T15:29:56.512Z,3.10
2019-06-26T15:32:26.515Z,3.12
2019-06-26T15:34:56.461Z,2.95
2019-06-26T15:37:27.154Z,3.27
2019-06-26T15:39:56.943Z,3.00
2019-06-26T15:42:27.176Z,2.95
2019-06-26T15:44:57.187Z,3.25
2019-06-26T15:47:27.396Z,3.08
2019-06-26T15:49:57.407Z,3.15
2019-06-26T15:52:27.320Z,2.92
2019-06-26T15:54:57.232Z,3.30
2019-06-26T15:57:27.147Z,3.10
2019-06-26T15:59:57.059Z,2.90
2019-06-26T16:02:26.972Z,3.27
2019-06-26T16:04:56.885Z,3.30
2019-06-26T16:07:26.798Z,3.00
2019-06-26T16:09:56.715Z,3.10
2019-06-26T16:12:26.722Z,2.98
2019-06-26T16:14:56.636Z,3.20
2019-06-26T16:17:28.416Z,3.20
2019-06-26T16:19:58.328Z,3.00
2019-06-26T16:22:32.671Z,2.98
2019-06-26T16:25:00.318Z,2.83
2019-06-26T16:27:30.447Z,3.08
2019-06-26T16:30:00.538Z,2.77
2019-06-26T16:32:30.449Z,3.20
2019-06-26T16:35:00.362Z,3.10
2019-06-26T16:37:30.278Z,3.33
2019-06-26T16:40:00.203Z,2.98
2019-06-26T16:42:30.497Z,3.10
2019-06-26T16:45:00.408Z,3.05
2019-06-26T16:47:30.325Z,3.05
2019-06-26T16:50:00.234Z,2.90
2019-06-26T16:52:30.441Z,2.90
2019-06-26T16:55:00.452Z,2.77
2019-06-26T16:57:30.624Z,2.95
2019-06-26T17:00:09.669Z,3.10
2019-06-26T17:02:32.684Z,3.20
2019-06-26T17:05:02.660Z,3.10
2019-06-26T17:07:33.072Z,3.37
2019-06-26T17:10:02.979Z,3.25
2019-06-26T17:12:32.894Z,3.10
2019-06-26T17:15:04.259Z,3.50
2019-06-26T17:17:34.488Z,3.10
2019-06-26T17:20:05.584Z,3.20
2019-06-26T17:22:35.589Z,3.10
2019-06-26T17:25:07.151Z,3.10
2019-06-26T17:27:37.284Z,3.60
2019-06-26T17:30:09.850Z,3.25
2019-06-26T17:32:39.861Z,3.67
2019-06-26T17:35:10.751Z,3.33
2019-06-26T17:37:40.874Z,3.62
2019-06-26T17:40:12.747Z,3.60
2019-06-26T17:42:42.689Z,3.20
2019-06-26T17:45:13.544Z,3.22
2019-06-26T17:47:43.441Z,3.60
2019-06-26T17:50:14.265Z,3.30
2019-06-26T17:52:45.948Z,3.30
2019-06-26T17:55:16.253Z,3.25
2019-06-26T17:57:47.629Z,3.72
2019-06-26T18:00:21.211Z,3.50
2019-06-26T18:02:51.203Z,3.70
2019-06-26T18:05:21.410Z,3.30
2019-06-26T18:07:51.661Z,3.70
2019-06-26T18:10:21.634Z,3.62
2019-06-26T18:12:51.839Z,3.95
2019-06-26T18:15:22.020Z,3.98
2019-06-26T18:17:51.962Z,8.75
2019-06-26T18:20:21.974Z,4.67
2019-06-26T18:23:05.792Z,4.83
2019-06-26T18:25:24.159Z,4.78
2019-06-26T18:27:54.165Z,4.92
2019-06-26T18:30:24.874Z,4.17
2019-06-26T18:32:55.086Z,3.70
2019-06-26T18:35:25.301Z,4.12
2019-06-26T18:37:55.411Z,4.12
2019-06-26T18:40:25.504Z,6.78
2019-06-26T18:42:55.667Z,8.08
2019-06-26T18:45:25.623Z,4.00
2019-06-26T18:47:55.497Z,3.52
2019-06-26T18:50:25.292Z,3.90
2019-06-26T18:52:55.509Z,3.45
2019-06-26T18:55:25.894Z,3.42
2019-06-26T18:57:57.296Z,3.40
2019-06-26T19:00:27.462Z,3.70
2019-06-26T19:02:57.369Z,3.62
2019-06-26T19:05:27.446Z,3.47
2019-06-26T19:07:57.278Z,3.67
2019-06-26T19:10:27.141Z,3.45
2019-06-26T19:12:57.321Z,3.40
2019-06-26T19:15:27.887Z,3.55
2019-06-26T19:17:58.028Z,3.70
2019-06-26T19:20:28.037Z,3.42
2019-06-26T19:22:58.049Z,3.33
2019-06-26T19:25:27.971Z,3.70
2019-06-26T19:27:58.171Z,3.67
2019-06-26T19:30:28.180Z,3.33
2019-06-26T19:32:58.290Z,3.80
2019-06-26T19:35:28.495Z,3.67
2019-06-26T19:37:58.707Z,3.62
2019-06-26T19:40:28.870Z,4.90
2019-06-26T19:42:58.829Z,3.75
2019-06-26T19:45:28.725Z,3.80
2019-06-26T19:47:58.754Z,3.72
2019-06-26T19:50:28.761Z,3.60
2019-06-26T19:52:58.676Z,3.72
2019-06-26T19:55:28.882Z,4.30
2019-06-26T19:57:58.763Z,5.25
2019-06-26T20:00:28.711Z,5.00
2019-06-26T20:02:58.620Z,3.25
2019-06-26T20:05:28.588Z,3.95
2019-06-26T20:07:58.880Z,3.72
2019-06-26T20:10:28.957Z,3.40
2019-06-26T20:12:59.354Z,4.60
2019-06-26T20:15:29.376Z,3.60
2019-06-26T20:17:59.571Z,3.50
2019-06-26T20:20:29.485Z,3.40
2019-06-26T20:22:59.500Z,3.40
2019-06-26T20:25:30.057Z,3.02
2019-06-26T20:28:00.095Z,3.30
2019-06-26T20:30:34.052Z,3.10
2019-06-26T20:33:03.967Z,3.47
2019-06-26T20:35:33.889Z,3.20
2019-06-26T20:38:03.847Z,3.27
2019-06-26T20:40:33.922Z,2.95
2019-06-26T20:43:04.208Z,3.30
2019-06-26T20:45:34.119Z,2.95
2019-06-26T20:48:04.032Z,3.30
2019-06-26T20:50:33.978Z,2.90
2019-06-26T20:53:03.974Z,3.00
2019-06-26T20:55:34.185Z,3.20
2019-06-26T20:58:04.257Z,3.22
2019-06-26T21:00:34.482Z,3.03
2019-06-26T21:03:04.924Z,3.50
2019-06-26T21:05:35.293Z,3.13
2019-06-26T21:08:06.484Z,3.20
2019-06-26T21:10:37.694Z,3.30
2019-06-26T21:13:08.742Z,3.00
2019-06-26T21:15:39.852Z,3.00
2019-06-26T21:18:11.786Z,2.93
2019-06-26T21:20:42.590Z,3.20
2019-06-26T21:23:18.924Z,3.17
2019-06-26T21:25:47.635Z,3.10
2019-06-26T21:28:17.775Z,3.00
2019-06-26T21:30:47.885Z,3.23
2019-06-26T21:33:18.757Z,3.20
2019-06-26T21:35:50.447Z,3.10
2019-06-26T21:38:20.617Z,3.00
2019-06-26T21:40:51.346Z,3.47
2019-06-26T21:43:21.284Z,3.10
2019-06-26T21:45:51.548Z,3.20
2019-06-26T21:48:21.504Z,3.60
2019-06-26T21:50:51.709Z,3.00
2019-06-26T21:53:21.623Z,3.23
2019-06-26T21:55:51.987Z,3.20
2019-06-26T21:58:22.436Z,3.27
2019-06-26T22:00:52.937Z,3.47
2019-06-26T22:03:22.847Z,3.50
2019-06-26T22:05:53.055Z,3.40
2019-06-26T22:08:23.911Z,3.30
2019-06-26T22:10:53.963Z,3.30
2019-06-26T22:13:24.269Z,3.43
2019-06-26T22:15:54.192Z,3.37
2019-06-26T22:18:24.389Z,3.20
2019-06-26T22:20:54.302Z,3.50
2019-06-26T22:23:24.218Z,3.50
2019-06-26T22:25:54.131Z,3.63
2019-06-26T22:28:24.040Z,3.40
2019-06-26T22:30:54.051Z,3.60
2019-06-26T22:33:23.964Z,3.63
2019-06-26T22:35:53.877Z,3.60
2019-06-26T22:38:23.987Z,3.23
2019-06-26T22:40:53.998Z,3.40
2019-06-26T22:43:23.910Z,3.60
2019-06-26T22:45:54.412Z,3.43
2019-06-26T22:48:24.325Z,3.57
2019-06-26T22:50:54.537Z,3.60
2019-06-26T22:53:24.460Z,3.27
2019-06-26T22:56:07.033Z,3.70
2019-06-26T22:58:26.056Z,3.40
2019-06-26T23:00:55.958Z,3.23
2019-06-26T23:03:25.869Z,3.40
2019-06-26T23:05:55.979Z,3.57
2019-06-26T23:08:25.894Z,3.50
2019-06-26T23:10:55.805Z,3.67
2019-06-26T23:13:26.014Z,3.47
2019-06-26T23:15:56.024Z,3.43
2019-06-26T23:18:25.940Z,3.23
2019-06-26T23:20:55.959Z,3.70
2019-06-26T23:23:26.155Z,3.43
2019-06-26T23:25:57.055Z,3.57
2019-06-26T23:28:26.964Z,3.40
2019-06-26T23:30:56.877Z,3.70
2019-06-26T23:33:26.987Z,3.47
2019-06-26T23:35:56.998Z,3.43
2019-06-26T23:38:26.922Z,3.30
2019-06-26T23:40:56.823Z,3.37
2019-06-26T23:43:26.937Z,3.23
2019-06-26T23:45:56.846Z,3.47
2019-06-26T23:48:26.860Z,3.60
2019-06-26T23:50:56.771Z,3.60
2019-06-26T23:53:26.780Z,3.77
2019-06-26T23:55:56.694Z,3.50
2019-06-26T23:58:26.730Z,3.40
